Mexican Cut, RMBL, Colorado Weather observations

Data are for 10 minute period ending at time listed.
 Day   Time   Solar   Ave.   Ave.  Ave.  Vector  Max.   Baro.   Total    
  of    of     Rad.   Air    Rel.  Wind   Wind   Wind  Press.  Precip.   
Year   Day            Temp.  Hum.  Speed  Dir.   Gust                    
2014   (MST)  Kw/m2    F      %     mph   deg.    mph    mb.     in.     
-------------------------------------------------------------------------
 209   13:30   0.25   56.2    65    2.5   321     5.0   685.1    0.00 
 209   13:40   0.27   56.4    64    2.8   336     5.7   685.0    0.00 
 209   13:50   0.30   56.7    67    2.9   352     7.2   685.0    0.00 
 209   14:00   0.55   57.3    67    1.6   336     6.2   685.0    0.00 
 209   14:10   0.62   57.7    65    3.7   340     9.5   684.9    0.00 
 209   14:20   0.49   57.4    65    2.5   358     6.6   685.0    0.00 
 209   14:30   0.39   57.2    65    3.4   332     8.3   684.9    0.00 
 209   14:40   0.43   57.1    66    2.3   326     5.3   684.9    0.00 
 209   14:50   0.46   57.8    65    3.2   337     7.6   685.0    0.00 
 209   15:00   0.16   57.1    64    2.3   124     8.4   685.1    0.00 
 209   15:10   0.11   54.1    66    2.6   183    11.3   685.0    0.00 
 209   15:20   0.14   53.2    66    2.0    66     7.3   685.1    0.00 
 209   15:30   0.14   53.1    64    1.3   308     5.8   685.1    0.00 
 209   15:40   0.19   53.1    63    1.8   309     4.4   685.1    0.00 
 209   15:50   0.23   52.7    63    1.9    37     6.4   685.1    0.00 
 209   16:00   0.28   53.6    63    1.0    20     3.8   685.0    0.00 
 209   16:10   0.20   53.6    63    1.6    19     6.9   685.0    0.00 
 209   16:20   0.15   52.8    65    1.9   336     6.3   684.9    0.00 
 209   16:30   0.08   52.3    66    1.5   334     6.4   684.8    0.00 
 209   16:40   0.04   52.0    66    0.9    93     3.3   684.8    0.00 
 209   16:50   0.02   51.9    69    0.6   172     3.7   684.9    0.00 
 209   17:00   0.03   51.3    68    1.1   132     3.0   684.8    0.00 
 209   17:10   0.05   50.8    72    2.8   146     7.5   684.7    0.00 
 209   17:20   0.03   50.3    73    2.7   150     8.6   684.7    0.00 
 209   17:30   0.01   49.7    76    4.1   161     8.2   684.9    0.00 
 209   17:40   0.01   48.6    81    4.0   165     9.1   684.8    0.00 
 209   17:50   0.01   47.3    87    4.1   166     9.1   685.0    0.00 
 209   18:00   0.01   46.7    88    3.5   176     8.0   685.1    0.00 
 209   18:10   0.01   46.1    90    2.2   203     3.1   685.2    0.00 
 209   18:20   0.01   45.8    92    0.8   228     2.4   685.2    0.00 
 209   18:30   0.00   45.8    94    1.2   217     3.4   685.3    0.00 
 209   18:40   0.00   45.5    93    1.3   214     2.7   685.3    0.00 
 209   18:50   0.00   45.3    93    0.6   216     2.4   685.3    0.00 
 209   19:00   0.00   45.3    94    1.0   142     2.9   685.1    0.00 
 209   19:10   0.01   45.0    94    3.1   162     6.4   685.0    0.00 
 209   19:20   0.00   44.6    94    4.2   174     7.7   684.8    0.00 
 209   19:30   0.00   44.3    93    2.6   164     6.8   684.8    0.00 
 209   19:40   0.00   44.5    93    0.8   193     2.7   684.7    0.00 
 209   19:50   0.00   44.4    94    1.3   216     2.1   684.6    0.00 
 209   20:00   0.00   44.2    94    1.9   194     3.7   684.5    0.00 
 209   20:10   0.00   44.3    93    2.1   189     3.4   684.5    0.00 
 209   20:20   0.00   44.5    92    2.6   176     6.1   684.5    0.00 
 209   20:30   0.00   45.0    91    2.1   165     3.4   684.6    0.00 
 209   20:40   0.00   45.4    89    4.3   154     8.5   684.8    0.00 
 209   20:50   0.00   46.3    85    4.4   151     8.8   684.9    0.00 
 209   21:00   0.00   46.8    83    4.8   140    10.1   684.9    0.00 
 209   21:10   0.00   46.1    88    3.1   136     6.4   685.0    0.00 
 209   21:20   0.00   46.1    87    3.9   146     7.8   684.9    0.00 
 209   21:30   0.00   46.6    84    5.5   149    12.0   684.9    0.00 
 209   21:40   0.00   46.8    84    4.6   137    11.5   684.8    0.00 
 209   21:50   0.00   46.9    80    7.1   158    13.4   684.9    0.00 
 209   22:00   0.00   47.0    79    7.2   155    12.6   684.8    0.00 
 209   22:10   0.00   47.0    81    6.4   166    12.4   684.9    0.00 
 209   22:20   0.00   46.5    84    5.5   159     9.3   684.8    0.00 
 209   22:30   0.00   46.2    87    6.3   170    13.4   684.7    0.00 
 209   22:40   0.00   46.0    89    7.7   163    19.4   684.7    0.00 
 209   22:50   0.00   45.8    90    6.3   158    15.1   684.7    0.00 
 209   23:00   0.00   45.8    91    5.7   163    14.0   684.7    0.00 
 209   23:10   0.00   45.9    91    4.4   171    10.0   684.8    0.00 
 209   23:20   0.00   45.8    92    4.0   162     8.6   684.7    0.00 
 209   23:30   0.00   45.7    93    3.4   136     7.5   684.7    0.00 
 209   23:40   0.00   45.4    94    4.2   171    11.7   684.7    0.00 
 209   23:50   0.00   45.4    94    3.7   165     9.6   684.7    0.00 
 210    0:00   0.00   45.4    94    3.3   145     8.6   684.5    0.00 
 210    0:10   0.00   45.0    95    2.8   124     5.7   684.5    0.00 
 210    0:20   0.00   44.8    96    3.6   131     6.9   684.4    0.00 
 210    0:30   0.00   44.7    97    3.5   137     6.8   684.3    0.00 
 210    0:40   0.00   44.6    97    3.3   133     6.4   684.3    0.00 
 210    0:50   0.00   44.6    97    2.7   136     6.7   684.2    0.00 
 210    1:00   0.00   44.6    97    2.7   123     5.0   684.1    0.00 
 210    1:10   0.00   44.6    97    2.8   123     4.7   684.1    0.00 
 210    1:20   0.00   44.5    98    2.4   125     5.8   683.9    0.00 
 210    1:30   0.00   44.4    98    2.7   125     5.6   683.8    0.00 
 210    1:40   0.00   44.4    98    2.2   118     4.0   683.7    0.00 
 210    1:50   0.00   44.4    98    1.7   115     3.4   683.7    0.00 
 210    2:00   0.00   44.3    98    2.2   115     3.3   683.6    0.00 
 210    2:10   0.00   44.4    98    2.4   122     5.0   683.5    0.00 
 210    2:20   0.00   44.4    98    2.9   118     5.8   683.4    0.00 
 210    2:30   0.00   44.5    98    2.2   117     4.5   683.3    0.00 
 210    2:40   0.00   44.5    97    3.2   100     5.3   683.2    0.00 
 210    2:50   0.00   44.3    97    2.8   110     5.6   683.1    0.00 
 210    3:00   0.00   44.3    97    2.6   131     5.1   683.0    0.00 
 210    3:10   0.00   44.4    97    2.3   128     5.3   683.1    0.00 
 210    3:20   0.00   44.4    97    2.4   127     4.2   682.9    0.00 
 210    3:30   0.00   44.3    96    2.4   135     4.9   682.9    0.00 
 210    3:40   0.00   44.2    96    0.7   194     5.4   682.9    0.00 
 210    3:50   0.00   44.2    96    0.7   296     2.9   683.0    0.00 
 210    4:00   0.00   44.2    96    0.2   192     0.9   683.0    0.00 
 210    4:10   0.00   44.0    96    0.1   185     0.9   683.1    0.00 
 210    4:20   0.00   44.1    96    0.0   240     0.2   683.0    0.00 
 210    4:30   0.00   44.3    96    0.0   295     0.5   683.0    0.00 
 210    4:40   0.00   44.2    96    0.3   184     1.1   682.9    0.00 
 210    4:50   0.00   44.3    96    0.0     0     0.0   683.0    0.00 
 210    5:00   0.00   44.5    96    0.1   183     0.6   683.0    0.00 
 210    5:10   0.00   44.4    96    0.1   208     0.6   683.1    0.00 
 210    5:20   0.00   44.5    96    0.2   280     1.8   683.0    0.00 
 210    5:30   0.01   44.6    96    0.3   289     1.6   683.0    0.00 
 210    5:40   0.01   44.9    94    1.4   303     3.3   683.1    0.00 
 210    5:50   0.02   45.0    93    1.7   311     4.1   683.1    0.00 
 210    6:00   0.04   44.9    94    0.2   307     1.2   683.2    0.00 
 210    6:10   0.06   44.9    94    0.8   254     2.0   683.3    0.00 
 210    6:20   0.08   45.1    94    1.5   292     3.1   683.1    0.00 
 210    6:30   0.09   45.3    93    1.5   303     3.5   683.2    0.00 
 210    6:40   0.11   45.6    91    1.0   332     2.9   683.2    0.00 
 210    6:50   0.11   45.9    92    1.2    26     3.0   683.2    0.00 
 210    7:00   0.06   45.6    93    0.3    67     1.6   683.3    0.00 
 210    7:10   0.04   45.5    94    0.5    73     1.8   683.4    0.00 
 210    7:20   0.04   45.4    94    0.6   121     2.2   683.3    0.00 
 210    7:30   0.06   45.6    93    0.9   147     2.4   683.2    0.00 
 210    7:40   0.09   45.9    93    0.2    94     1.2   683.2    0.00 
 210    7:50   0.13   46.1    94    0.3    68     1.8   683.2    0.00 
 210    8:00   0.17   46.5    95    1.3    81     3.1   683.2    0.00 
 210    8:10   0.21   46.6    95    1.7    93     3.4   683.2    0.00 
 210    8:20   0.25   47.0    93    1.8   114     5.1   683.2    0.00 
 210    8:30   0.24   47.3    92    2.1    83     4.7   683.2    0.00 
 210    8:40   0.23   47.3    93    1.7    83     4.1   683.2    0.00 
 210    8:50   0.24   47.5    93    1.1    79     4.5   683.2    0.00 
 210    9:00   0.30   48.1    91    1.0    76     2.8   683.2    0.00 
 210    9:10   0.36   48.6    90    2.1    76     5.5   683.3    0.00 
 210    9:20   0.18   48.6    91    1.7    80     4.5   683.2    0.00 
 210    9:30   0.13   47.9    93    1.5    65     5.0   683.3    0.00 
 210    9:40   0.10   47.2    92    1.7    42     4.0   683.3    0.00 
 210    9:50   0.06   46.6    93    0.9   268     2.9   683.3    0.00 
 210   10:00   0.06   46.1    92    0.8   299     3.8   683.3    0.00 
 210   10:10   0.08   46.1    94    1.7   343     3.5   683.4    0.00 
 210   10:20   0.14   45.8    95    1.4   333     4.5   683.3    0.00 
 210   10:30   0.17   46.1    96    1.4   340     5.4   683.3    0.00 
 210   10:40   0.14   45.9    96    3.2   342     6.4   683.3    0.00 
 210   10:50   0.14   45.9    96    1.9   335     4.4   683.2    0.00 
 210   11:00   0.12   45.8    96    1.9   344     4.8   683.1    0.00 
 210   11:10   0.11   46.0    96    0.7   351     2.3   683.2    0.00 
 210   11:20   0.12   46.0    96    1.8   330     5.2   683.0    0.00 
 210   11:30   0.16   46.1    96    1.3   336     3.4   683.0    0.00 
 210   11:40   0.30   46.9    96    1.2   343     4.0   682.9    0.00 
 210   11:50   0.30   47.0    94    2.5   342     5.0   682.9    0.00 
 210   12:00   0.40   47.5    92    2.6   324     6.4   682.9    0.00 
 210   12:10   0.44   47.8    92    2.3   348     5.4   682.9    0.00 
 210   12:20   0.37   48.3    92    3.0   339     6.9   682.8    0.00 
 210   12:30   0.25   47.7    91    2.6   320     5.8   682.8    0.00 
 210   12:40   0.43   48.0    90    3.3   335     5.8   682.7    0.00 
 210   12:50   0.30   48.0    89    3.2   330     5.8   682.7    0.00 
 210   13:00   0.21   47.7    91    2.8   324     5.3   682.7    0.00 
 210   13:10   0.28   47.8    92    3.4   333     8.1   682.7    0.00 
 210   13:20   0.23   47.5    94    3.8   334     8.0   682.7    0.00 

Return to Mexican Cut, RMBL, Colorado graphs page.


Western Regional Climate Center,wrcc@dri.edu